Time;durP1;ratioP1;P1;durP2;ratioP2;P2;SDS_P1;SDS_P2;PMS_P1;PMS_P2;Temp;Humidity;BMP_temperature;BMP_pressure;BME280_temperature;BME280_humidity;BME280_pressure;Samples;Min_cycle;Max_cycle;Signal;HPM_P1;HPM_P2
2023/09/15 00:00:42;;;;;;;7.15;4.50;;;16.00;75.50;;;;;;5001743;28;20474;-89
2023/09/15 00:03:08;;;;;;;6.45;4.60;;;15.90;75.50;;;;;;4997179;28;20026;-89
2023/09/15 00:05:34;;;;;;;7.63;4.78;;;15.90;75.60;;;;;;4994110;28;20527;-90
2023/09/15 00:08:04;;;;;;;8.48;4.35;;;15.90;75.50;;;;;;4987361;28;20101;-90
2023/09/15 00:10:30;;;;;;;6.05;4.38;;;15.90;75.70;;;;;;4990985;28;20129;-89
2023/09/15 00:13:00;;;;;;;8.75;4.60;;;15.90;75.70;;;;;;5022367;28;20033;-90
2023/09/15 00:15:27;;;;;;;6.15;4.30;;;15.80;75.70;;;;;;4990811;28;20080;-89
2023/09/15 00:17:54;;;;;;;6.07;4.53;;;15.80;75.80;;;;;;4990921;28;20023;-90
2023/09/15 00:20:20;;;;;;;8.57;4.40;;;15.80;75.70;;;;;;4995983;28;20030;-88
2023/09/15 00:22:50;;;;;;;6.43;4.35;;;15.80;75.70;;;;;;5021598;28;20385;-89
2023/09/15 00:25:19;;;;;;;7.63;4.75;;;15.80;75.60;;;;;;4992073;28;20097;-90
2023/09/15 00:27:52;;;;;;;7.20;4.15;;;15.90;75.90;;;;;;4989595;28;20045;-90
2023/09/15 00:30:19;;;;;;;6.20;4.00;;;15.80;75.80;;;;;;4990310;28;20023;-90
2023/09/15 00:32:47;;;;;;;6.97;4.50;;;15.80;76.00;;;;;;4990905;28;20038;-90
2023/09/15 00:35:22;;;;;;;7.15;4.70;;;15.80;76.10;;;;;;4992005;28;20382;-90
2023/09/15 00:37:49;;;;;;;6.47;4.07;;;15.70;76.20;;;;;;4992118;28;20038;-89
2023/09/15 00:40:16;;;;;;;6.35;4.30;;;15.70;76.20;;;;;;4990380;28;20034;-90
2023/09/15 00:42:44;;;;;;;7.53;4.95;;;15.70;76.30;;;;;;5022572;28;20041;-90
2023/09/15 00:45:14;;;;;;;5.90;3.97;;;15.70;76.40;;;;;;4993884;28;20023;-90
2023/09/15 00:47:43;;;;;;;5.85;4.63;;;15.70;76.30;;;;;;4989070;28;20022;-90
2023/09/15 00:50:14;;;;;;;6.30;4.60;;;15.70;76.40;;;;;;4995977;28;20060;-90
2023/09/15 00:52:43;;;;;;;6.05;4.38;;;15.70;76.50;;;;;;4990406;28;20441;-90
2023/09/15 00:55:10;;;;;;;7.22;4.47;;;15.70;76.50;;;;;;4998355;28;20030;-90
2023/09/15 00:57:39;;;;;;;6.28;4.25;;;15.70;76.70;;;;;;5000368;28;20130;-90
2023/09/15 01:00:12;;;;;;;6.47;4.32;;;15.60;76.90;;;;;;4998747;28;20347;-90
2023/09/15 01:02:39;;;;;;;5.85;4.15;;;15.60;76.90;;;;;;4989525;28;20034;-90
2023/09/15 01:05:07;;;;;;;6.22;4.07;;;15.60;77.00;;;;;;4998783;28;20022;-93
2023/09/15 01:07:35;;;;;;;6.40;4.32;;;15.60;77.10;;;;;;4999466;28;20101;-90
2023/09/15 01:10:00;;;;;;;7.57;4.63;;;15.50;77.20;;;;;;4990484;28;20124;-89
2023/09/15 01:12:26;;;;;;;5.85;4.13;;;15.50;77.30;;;;;;5021156;28;20095;-89
2023/09/15 01:14:52;;;;;;;8.43;4.65;;;15.50;77.30;;;;;;5022417;28;20029;-90
2023/09/15 01:17:23;;;;;;;7.38;4.22;;;15.50;77.30;;;;;;4990364;28;20041;-90
2023/09/15 01:19:54;;;;;;;7.43;4.10;;;15.50;77.20;;;;;;4990456;28;20030;-90
2023/09/15 01:22:41;;;;;;;7.03;4.25;;;15.50;77.10;;;;;;4987372;28;20382;-90
2023/09/15 01:25:28;;;;;;;8.55;4.75;;;15.50;77.20;;;;;;4990058;28;20038;-90
2023/09/15 01:27:59;;;;;;;5.70;4.13;;;15.50;77.40;;;;;;4989932;28;20157;-89
2023/09/15 01:30:25;;;;;;;6.18;3.90;;;15.50;77.50;;;;;;4989639;28;20033;-89
2023/09/15 01:32:54;;;;;;;8.40;4.63;;;15.50;77.40;;;;;;4987032;28;20030;-90
2023/09/15 01:35:19;;;;;;;6.90;4.38;;;15.40;78.00;;;;;;4994551;28;20057;-89
2023/09/15 01:37:45;;;;;;;7.95;4.28;;;15.40;77.40;;;;;;4995978;28;20405;-89
2023/09/15 01:40:11;;;;;;;5.40;3.95;;;15.40;77.40;;;;;;4987055;28;20417;-88
2023/09/15 01:42:40;;;;;;;7.15;4.40;;;15.40;77.40;;;;;;5005579;28;20057;-89
2023/09/15 01:45:06;;;;;;;6.80;4.38;;;15.40;77.60;;;;;;4999130;28;20029;-88
2023/09/15 01:47:33;;;;;;;8.27;5.10;;;15.40;77.70;;;;;;4990491;28;20026;-90
2023/09/15 01:50:00;;;;;;;7.30;4.63;;;15.30;77.80;;;;;;4999676;28;20441;-89
2023/09/15 01:52:26;;;;;;;7.30;4.20;;;15.30;77.90;;;;;;4988060;28;20113;-90
2023/09/15 01:54:54;;;;;;;6.03;3.92;;;15.30;78.00;;;;;;4987012;28;20090;-88
2023/09/15 01:57:21;;;;;;;6.60;3.88;;;15.30;78.00;;;;;;4988186;28;20749;-91
2023/09/15 01:59:47;;;;;;;5.82;3.50;;;15.30;78.10;;;;;;4993604;28;20053;-91
2023/09/15 02:02:12;;;;;;;7.35;4.28;;;15.30;78.00;;;;;;4999956;28;20064;-90
2023/09/15 02:04:38;;;;;;;6.53;4.13;;;15.30;78.10;;;;;;4989906;28;20023;-90
2023/09/15 02:07:04;;;;;;;6.30;4.22;;;15.20;78.10;;;;;;4986086;28;20037;-90
2023/09/15 02:09:30;;;;;;;5.85;4.07;;;15.20;78.20;;;;;;4988848;28;20022;-89
2023/09/15 02:11:55;;;;;;;8.32;4.00;;;15.10;78.50;;;;;;4989622;28;20125;-90
2023/09/15 02:14:21;;;;;;;7.13;4.18;;;15.10;78.50;;;;;;5002409;28;20388;-89
2023/09/15 02:16:46;;;;;;;8.52;5.07;;;15.10;78.70;;;;;;4999873;28;20171;-89
2023/09/15 02:19:12;;;;;;;7.20;4.53;;;15.00;79.00;;;;;;5002709;28;20546;-91
2023/09/15 02:21:38;;;;;;;6.25;4.68;;;15.00;79.10;;;;;;5003622;28;20037;-91
2023/09/15 02:24:04;;;;;;;7.15;4.30;;;15.00;79.30;;;;;;5001233;28;20026;-91
2023/09/15 02:26:30;;;;;;;7.15;5.13;;;15.00;79.50;;;;;;5000917;28;20389;-91
2023/09/15 02:28:55;;;;;;;5.95;4.20;;;14.90;79.50;;;;;;4996824;28;20023;-91
2023/09/15 02:31:21;;;;;;;6.13;4.10;;;15.00;79.50;;;;;;4999380;28;20417;-90
2023/09/15 02:33:46;;;;;;;4.97;3.28;;;15.00;79.30;;;;;;4994682;28;20022;-91
2023/09/15 02:36:12;;;;;;;6.72;4.50;;;15.00;79.20;;;;;;5004310;28;20390;-91
2023/09/15 02:38:37;;;;;;;6.47;4.35;;;14.90;79.30;;;;;;5005491;28;20113;-90
2023/09/15 02:41:03;;;;;;;6.95;3.95;;;15.00;79.40;;;;;;4997965;28;20030;-90
2023/09/15 02:43:29;;;;;;;6.57;4.32;;;14.90;79.40;;;;;;5000382;28;20023;-90
2023/09/15 02:46:01;;;;;;;8.73;4.80;;;14.90;79.50;;;;;;4996686;28;20022;-91
2023/09/15 02:48:27;;;;;;;7.07;4.38;;;14.90;79.60;;;;;;4994633;28;20027;-91
2023/09/15 02:50:52;;;;;;;8.13;5.07;;;14.90;79.70;;;;;;4996013;28;20034;-92
2023/09/15 02:53:18;;;;;;;7.70;4.60;;;14.90;79.80;;;;;;4993842;28;20029;-91
2023/09/15 02:55:53;;;;;;;5.75;4.55;;;14.80;79.70;;;;;;5005800;28;20040;-91
2023/09/15 02:58:19;;;;;;;8.38;4.95;;;14.80;79.80;;;;;;4992629;28;20031;-91
2023/09/15 03:00:44;;;;;;;6.35;4.32;;;14.80;80.10;;;;;;5003960;28;20046;-91
2023/09/15 03:03:10;;;;;;;6.35;3.97;;;14.80;80.00;;;;;;5003250;28;20033;-91
2023/09/15 03:05:35;;;;;;;6.30;4.40;;;14.90;79.90;;;;;;5012258;28;20026;-91
2023/09/15 03:08:01;;;;;;;6.43;4.18;;;14.80;79.90;;;;;;4997411;28;20101;-91
2023/09/15 03:10:27;;;;;;;5.65;3.97;;;14.80;79.90;;;;;;5021709;28;20018;-91
2023/09/15 03:12:53;;;;;;;7.38;4.20;;;14.80;79.70;;;;;;4999927;28;20338;-90
2023/09/15 03:15:19;;;;;;;5.88;4.00;;;14.90;79.70;;;;;;4997476;28;20022;-90
2023/09/15 03:17:45;;;;;;;6.63;3.90;;;14.90;79.60;;;;;;4996538;28;20200;-90
2023/09/15 03:20:15;;;;;;;5.88;4.03;;;14.90;79.50;;;;;;5024525;28;20030;-90
2023/09/15 03:22:42;;;;;;;6.10;4.18;;;14.90;79.40;;;;;;4997824;28;20033;-89
2023/09/15 03:25:08;;;;;;;5.90;4.10;;;14.80;79.50;;;;;;5003625;28;20392;-89
2023/09/15 03:27:34;;;;;;;6.05;4.45;;;14.80;79.50;;;;;;4992448;28;20110;-90
2023/09/15 03:30:00;;;;;;;7.47;4.60;;;14.80;79.80;;;;;;4999370;28;20030;-90
2023/09/15 03:32:25;;;;;;;6.07;4.20;;;14.80;79.80;;;;;;5008267;28;20511;-90
2023/09/15 03:34:51;;;;;;;7.00;4.50;;;14.80;79.90;;;;;;4991483;28;20022;-89
2023/09/15 03:37:17;;;;;;;7.32;4.55;;;14.70;80.00;;;;;;4991397;28;20043;-91
2023/09/15 03:39:42;;;;;;;8.30;4.25;;;14.70;80.20;;;;;;4997028;28;20030;-90
2023/09/15 03:42:08;;;;;;;9.90;4.55;;;14.60;80.30;;;;;;4995702;28;20110;-91
2023/09/15 03:44:34;;;;;;;7.15;4.20;;;14.50;80.50;;;;;;5024634;28;20026;-91
2023/09/15 03:47:00;;;;;;;7.97;4.18;;;14.50;80.70;;;;;;5024049;28;20508;-91
2023/09/15 03:49:26;;;;;;;5.53;3.78;;;14.50;80.70;;;;;;5001363;28;20069;-91
2023/09/15 03:51:52;;;;;;;7.30;4.07;;;14.50;81.30;;;;;;4992471;28;20034;-90
2023/09/15 03:54:18;;;;;;;6.28;4.05;;;14.50;80.60;;;;;;4998661;28;20076;-90
2023/09/15 03:56:44;;;;;;;5.20;3.85;;;14.50;80.80;;;;;;4990574;28;20081;-90
2023/09/15 03:59:09;;;;;;;7.90;4.60;;;14.50;80.90;;;;;;4995484;28;20072;-89
2023/09/15 04:01:35;;;;;;;7.15;4.47;;;14.50;80.90;;;;;;4994369;28;20352;-90
2023/09/15 04:04:02;;;;;;;8.73;3.80;;;14.50;80.90;;;;;;5000400;28;20022;-92
2023/09/15 04:06:28;;;;;;;6.63;4.25;;;14.40;80.90;;;;;;4992418;28;20030;-93
2023/09/15 04:08:55;;;;;;;5.05;3.53;;;14.40;81.60;;;;;;4992428;28;20030;-92
2023/09/15 04:11:21;;;;;;;7.47;4.20;;;14.40;80.90;;;;;;4990058;28;20098;-93
2023/09/15 04:13:46;;;;;;;6.18;4.32;;;14.40;80.90;;;;;;4993125;28;20104;-92
2023/09/15 04:16:12;;;;;;;8.20;5.10;;;14.40;81.00;;;;;;5019651;28;20034;-92
2023/09/15 04:18:38;;;;;;;6.50;3.90;;;14.40;81.20;;;;;;4995404;28;20029;-92
2023/09/15 04:21:04;;;;;;;6.20;3.45;;;14.40;81.20;;;;;;4992449;28;20773;-92
2023/09/15 04:23:30;;;;;;;6.05;4.18;;;14.40;81.00;;;;;;5023315;28;20052;-93
2023/09/15 04:25:56;;;;;;;9.43;4.70;;;14.50;80.90;;;;;;5025612;28;20197;-92
2023/09/15 04:28:21;;;;;;;7.03;4.53;;;14.40;80.80;;;;;;5003549;28;20030;-91
2023/09/15 04:30:48;;;;;;;6.47;4.05;;;14.40;80.70;;;;;;4987416;28;20042;-91
2023/09/15 04:33:13;;;;;;;7.30;4.43;;;14.40;80.60;;;;;;4997313;28;20026;-92
2023/09/15 04:35:39;;;;;;;6.90;4.68;;;14.40;80.80;;;;;;4993812;28;20041;-91
2023/09/15 04:38:06;;;;;;;8.25;4.70;;;14.40;80.90;;;;;;4988448;28;20018;-91
2023/09/15 04:40:31;;;;;;;6.13;4.07;;;14.30;81.00;;;;;;4991210;28;20026;-91
2023/09/15 04:42:59;;;;;;;5.18;3.72;;;14.30;81.00;;;;;;5021301;28;20115;-91
2023/09/15 04:45:25;;;;;;;4.40;3.22;;;14.30;81.00;;;;;;4998278;28;20113;-89
2023/09/15 04:47:50;;;;;;;5.68;3.88;;;14.40;80.90;;;;;;5004055;28;20421;-90
2023/09/15 04:50:16;;;;;;;6.55;3.90;;;14.40;80.70;;;;;;5003537;28;20033;-91
2023/09/15 04:52:42;;;;;;;7.32;4.07;;;14.30;80.70;;;;;;4998818;28;20033;-90
2023/09/15 04:55:07;;;;;;;6.00;3.45;;;14.30;80.80;;;;;;4997651;28;20109;-90
2023/09/15 04:57:33;;;;;;;6.13;3.85;;;14.30;80.80;;;;;;4992926;28;20038;-90
2023/09/15 04:59:59;;;;;;;4.30;3.10;;;14.30;80.80;;;;;;4994834;28;20018;-90
2023/09/15 05:02:28;;;;;;;7.65;4.60;;;14.30;80.60;;;;;;5004241;28;20382;-89
2023/09/15 05:04:54;;;;;;;6.53;4.40;;;14.20;81.50;;;;;;4992817;28;20500;-90
2023/09/15 05:07:20;;;;;;;8.15;4.30;;;14.20;81.30;;;;;;5006306;28;20023;-89
2023/09/15 05:09:48;;;;;;;8.65;4.65;;;14.10;81.30;;;;;;5006247;28;20018;-90
2023/09/15 05:12:16;;;;;;;7.20;4.60;;;14.10;81.50;;;;;;4992098;28;20478;-92
2023/09/15 05:14:42;;;;;;;6.78;4.15;;;14.10;81.60;;;;;;5025648;28;20026;-92
2023/09/15 05:17:08;;;;;;;6.47;4.22;;;14.10;81.50;;;;;;4999697;28;20105;-91
2023/09/15 05:19:33;;;;;;;6.45;4.07;;;14.10;81.40;;;;;;5004101;28;20019;-90
2023/09/15 05:21:59;;;;;;;6.95;4.60;;;14.10;81.40;;;;;;4989203;28;20130;-89
2023/09/15 05:24:25;;;;;;;6.32;4.50;;;14.10;81.50;;;;;;4994120;28;20531;-89
2023/09/15 05:26:51;;;;;;;5.68;4.05;;;14.00;81.80;;;;;;4991457;28;20105;-89
2023/09/15 05:29:16;;;;;;;7.07;4.15;;;14.00;81.80;;;;;;4990586;28;20444;-90
2023/09/15 05:31:42;;;;;;;6.57;3.80;;;14.10;81.80;;;;;;4984762;28;20057;-90
2023/09/15 05:34:09;;;;;;;6.43;4.30;;;14.10;81.60;;;;;;4988950;28;20373;-90
2023/09/15 05:36:34;;;;;;;7.32;5.50;;;14.10;81.50;;;;;;4986404;28;20027;-91
2023/09/15 05:39:00;;;;;;;6.40;4.40;;;14.10;81.50;;;;;;4989790;28;20018;-93
2023/09/15 05:41:25;;;;;;;9.18;5.10;;;14.20;81.50;;;;;;4990068;28;21006;-89
2023/09/15 05:43:51;;;;;;;6.97;4.45;;;14.20;81.60;;;;;;4989808;28;20123;-91
2023/09/15 05:46:17;;;;;;;6.90;4.53;;;14.20;81.60;;;;;;4982152;28;20102;-87
2023/09/15 05:48:42;;;;;;;8.10;4.68;;;14.30;82.20;;;;;;4983827;28;20049;-88
2023/09/15 05:51:08;;;;;;;6.43;4.57;;;14.50;82.20;;;;;;4981455;28;20060;-87
2023/09/15 05:53:34;;;;;;;7.28;4.68;;;14.90;81.10;;;;;;4986906;28;20052;-86
2023/09/15 05:56:01;;;;;;;6.13;4.30;;;15.60;79.30;;;;;;4984834;28;20030;-87
2023/09/15 05:58:27;;;;;;;6.80;4.00;;;16.70;77.00;;;;;;4983197;28;20508;-83
2023/09/15 06:00:55;;;;;;;7.15;4.05;;;17.60;74.20;;;;;;4981447;28;20031;-85
2023/09/15 06:03:22;;;;;;;7.78;4.68;;;18.30;72.10;;;;;;5002302;28;20106;-86
2023/09/15 06:05:47;;;;;;;6.07;4.30;;;18.40;70.10;;;;;;5003384;28;20055;-86
2023/09/15 06:08:13;;;;;;;6.93;4.22;;;18.80;69.20;;;;;;5001992;28;20046;-86
2023/09/15 06:10:40;;;;;;;6.35;4.35;;;19.00;68.40;;;;;;4987850;28;20065;-86
2023/09/15 06:13:08;;;;;;;8.23;4.38;;;19.10;67.90;;;;;;4986119;28;20022;-85
2023/09/15 06:15:34;;;;;;;5.93;3.67;;;19.40;67.00;;;;;;4994260;28;20034;-84
2023/09/15 06:18:01;;;;;;;6.40;4.93;;;19.70;66.20;;;;;;4995801;28;20046;-84
2023/09/15 06:20:30;;;;;;;6.85;4.18;;;19.60;65.50;;;;;;4988393;28;20351;-84
2023/09/15 06:22:56;;;;;;;7.20;4.60;;;19.60;65.30;;;;;;5017583;28;20482;-85
2023/09/15 06:25:22;;;;;;;6.63;4.50;;;19.50;65.30;;;;;;4993738;28;20045;-87
2023/09/15 06:27:47;;;;;;;5.20;3.70;;;19.20;65.80;;;;;;4986973;28;20026;-84
2023/09/15 06:30:13;;;;;;;7.07;3.97;;;18.90;66.80;;;;;;4995173;28;20667;-83
2023/09/15 06:32:38;;;;;;;7.50;4.50;;;18.70;67.70;;;;;;4987722;28;20066;-84
2023/09/15 06:35:05;;;;;;;7.35;4.95;;;18.40;68.30;;;;;;5001486;28;20018;-84
2023/09/15 06:37:31;;;;;;;6.65;4.30;;;18.40;68.70;;;;;;4988510;28;20452;-89
2023/09/15 06:39:56;;;;;;;9.88;6.45;;;18.30;68.50;;;;;;4986197;28;20030;-88
2023/09/15 06:42:22;;;;;;;21.80;18.30;;;18.10;68.80;;;;;;4984211;28;20493;-88
2023/09/15 06:44:48;;;;;;;10.38;7.97;;;18.00;69.20;;;;;;4989410;28;20117;-88
2023/09/15 06:47:13;;;;;;;6.57;4.88;;;17.90;69.30;;;;;;4983345;28;20672;-88
2023/09/15 06:49:39;;;;;;;7.20;5.00;;;17.90;69.60;;;;;;4993583;28;20459;-88
2023/09/15 06:52:06;;;;;;;5.82;4.13;;;17.80;69.90;;;;;;4991350;28;20117;-88
2023/09/15 06:54:31;;;;;;;8.80;4.90;;;17.80;70.10;;;;;;5020164;28;20027;-88
2023/09/15 06:56:57;;;;;;;7.03;4.75;;;17.80;70.20;;;;;;4998450;28;20100;-88
2023/09/15 06:59:22;;;;;;;10.52;5.72;;;17.70;70.30;;;;;;5000846;28;20034;-88
2023/09/15 07:01:48;;;;;;;6.88;4.82;;;17.70;70.40;;;;;;4997510;28;20027;-88
2023/09/15 07:04:14;;;;;;;7.82;4.28;;;17.70;70.50;;;;;;5002299;28;20624;-88
2023/09/15 07:06:40;;;;;;;10.65;5.95;;;17.70;70.50;;;;;;4995763;28;20029;-88
2023/09/15 07:09:06;;;;;;;8.60;4.93;;;17.70;70.50;;;;;;5001849;28;20513;-88
2023/09/15 07:11:32;;;;;;;8.25;5.43;;;17.60;70.70;;;;;;5001250;28;20030;-88
2023/09/15 07:13:57;;;;;;;7.05;4.65;;;17.60;70.70;;;;;;4993821;28;20448;-88
2023/09/15 07:16:23;;;;;;;6.88;5.15;;;17.70;70.80;;;;;;4999910;28;20026;-87
2023/09/15 07:18:48;;;;;;;8.02;4.85;;;17.70;70.70;;;;;;4995372;28;20173;-87
2023/09/15 07:21:14;;;;;;;6.47;4.40;;;17.70;70.80;;;;;;4990539;28;20044;-87
2023/09/15 07:23:40;;;;;;;8.45;4.80;;;17.80;70.80;;;;;;5001709;28;20032;-87
2023/09/15 07:26:05;;;;;;;7.43;4.50;;;17.80;70.70;;;;;;5004309;28;20019;-87
2023/09/15 07:28:31;;;;;;;8.93;5.22;;;17.80;70.60;;;;;;5000715;28;20036;-88
2023/09/15 07:31:04;;;;;;;11.30;4.70;;;17.80;70.60;;;;;;4995400;28;20037;-88
2023/09/15 07:33:30;;;;;;;7.95;4.70;;;17.80;70.60;;;;;;5015418;28;20108;-87
2023/09/15 07:36:03;;;;;;;10.55;7.88;;;18.00;70.50;;;;;;4998050;28;20033;-87
2023/09/15 07:38:31;;;;;;;8.52;5.25;;;18.00;70.50;;;;;;5002101;28;20072;-87
2023/09/15 07:40:57;;;;;;;6.72;4.72;;;17.90;70.40;;;;;;5026461;28;20018;-86
2023/09/15 07:43:23;;;;;;;7.75;4.60;;;17.90;70.40;;;;;;4992924;28;20030;-86
2023/09/15 07:45:50;;;;;;;7.85;4.30;;;18.00;70.50;;;;;;4993104;28;20053;-86
2023/09/15 07:48:16;;;;;;;7.78;4.43;;;18.00;70.40;;;;;;5002369;28;20111;-86
2023/09/15 07:50:42;;;;;;;7.43;3.88;;;18.10;70.30;;;;;;4997471;28;20041;-86
2023/09/15 07:53:08;;;;;;;9.93;4.65;;;18.30;70.20;;;;;;4995670;28;20022;-85
2023/09/15 07:55:34;;;;;;;6.47;4.25;;;18.30;69.80;;;;;;5002062;28;20547;-87
2023/09/15 07:57:59;;;;;;;9.95;5.40;;;18.30;69.70;;;;;;4993022;28;20022;-86
2023/09/15 08:00:25;;;;;;;7.55;4.30;;;18.40;69.80;;;;;;4990439;28;20042;-86
2023/09/15 08:02:51;;;;;;;9.20;5.03;;;18.50;69.70;;;;;;4992379;28;20030;-86
2023/09/15 08:05:16;;;;;;;8.45;4.13;;;18.60;69.50;;;;;;5030720;28;20029;-86
2023/09/15 08:07:44;;;;;;;9.07;4.78;;;18.70;69.40;;;;;;5005741;28;20032;-86
2023/09/15 08:10:11;;;;;;;8.77;4.55;;;18.80;69.20;;;;;;4998547;28;20104;-86
2023/09/15 08:12:37;;;;;;;9.07;4.35;;;18.90;69.10;;;;;;4995987;28;20100;-86
2023/09/15 08:15:05;;;;;;;11.38;4.68;;;18.90;69.00;;;;;;4989316;28;20038;-86
2023/09/15 08:17:31;;;;;;;9.32;3.58;;;19.00;68.80;;;;;;5008546;28;20022;-85
2023/09/15 08:19:57;;;;;;;7.72;3.90;;;19.00;68.80;;;;;;4990445;28;20441;-86
2023/09/15 08:22:25;;;;;;;6.63;3.63;;;19.00;68.60;;;;;;4999987;28;20031;-86
2023/09/15 08:24:51;;;;;;;5.88;3.40;;;19.10;68.60;;;;;;4999544;28;20041;-87
2023/09/15 08:27:17;;;;;;;5.38;3.33;;;19.10;68.40;;;;;;4995958;28;20026;-87
2023/09/15 08:29:43;;;;;;;8.80;4.53;;;19.20;68.30;;;;;;4996163;28;20456;-85
2023/09/15 08:32:09;;;;;;;7.60;4.50;;;19.20;68.20;;;;;;5003170;28;20043;-86
2023/09/15 08:34:35;;;;;;;7.50;3.67;;;19.20;68.10;;;;;;4990933;28;20019;-86
2023/09/15 08:37:01;;;;;;;7.00;3.80;;;19.20;68.30;;;;;;5008625;28;20508;-87
2023/09/15 08:39:26;;;;;;;5.90;3.80;;;19.20;68.40;;;;;;5006282;28;20026;-86
2023/09/15 08:41:58;;;;;;;5.60;3.58;;;19.30;68.30;;;;;;4993770;28;20413;-85
2023/09/15 08:44:24;;;;;;;;;;;19.30;68.40;;;;;;5002335;28;20125;-85
2023/09/15 08:46:50;;;;;;;6.93;3.90;;;19.40;68.30;;;;;;4990834;28;20393;-86
2023/09/15 08:49:16;;;;;;;7.43;4.00;;;19.30;68.10;;;;;;4986733;28;20540;-85
2023/09/15 08:51:43;;;;;;;6.07;3.50;;;19.30;68.40;;;;;;4989240;28;20066;-86
2023/09/15 08:54:10;;;;;;;7.97;4.38;;;19.40;68.50;;;;;;4994815;28;20555;-86
2023/09/15 08:56:36;;;;;;;7.75;4.50;;;19.30;68.50;;;;;;4989192;28;20022;-86
2023/09/15 08:59:04;;;;;;;7.50;4.10;;;19.30;68.10;;;;;;4989199;28;20026;-86
2023/09/15 09:01:30;;;;;;;8.43;4.85;;;19.30;68.50;;;;;;4987730;28;20032;-86
2023/09/15 09:03:56;;;;;;;6.55;3.95;;;19.30;68.40;;;;;;5017881;28;20105;-86
2023/09/15 09:06:23;;;;;;;5.95;3.70;;;19.30;68.60;;;;;;4988562;28;20092;-86
2023/09/15 09:08:49;;;;;;;7.75;4.20;;;19.40;68.70;;;;;;4990074;28;20054;-86
2023/09/15 09:11:15;;;;;;;5.60;3.42;;;19.50;68.60;;;;;;4996400;28;20597;-87
2023/09/15 09:13:41;;;;;;;8.57;4.55;;;19.50;68.60;;;;;;5003974;28;20463;-86
2023/09/15 09:16:10;;;;;;;5.00;3.47;;;19.60;68.10;;;;;;4988609;28;20025;-86
2023/09/15 09:18:36;;;;;;;6.60;3.53;;;19.60;68.00;;;;;;5018555;28;20030;-87
2023/09/15 09:21:04;;;;;;;5.80;3.92;;;19.80;67.90;;;;;;4988224;28;20034;-87
2023/09/15 09:23:30;;;;;;;6.45;3.90;;;19.80;67.60;;;;;;4997573;28;20029;-86
2023/09/15 09:25:59;;;;;;;5.53;3.60;;;19.90;67.50;;;;;;4990917;28;20113;-87
2023/09/15 09:28:25;;;;;;;7.55;4.18;;;19.80;67.20;;;;;;4994898;28;20033;-87
2023/09/15 09:30:56;;;;;;;5.30;3.70;;;19.80;67.10;;;;;;4988534;28;20037;-86
2023/09/15 09:33:22;;;;;;;5.82;3.60;;;19.80;67.10;;;;;;4987132;28;20041;-86
2023/09/15 09:35:49;;;;;;;6.90;4.25;;;19.90;67.10;;;;;;5019987;28;20037;-86
2023/09/15 09:38:15;;;;;;;4.50;3.20;;;20.00;66.30;;;;;;4991792;28;20034;-86
2023/09/15 09:40:41;;;;;;;7.30;3.33;;;20.00;66.20;;;;;;4999459;28;20033;-86
2023/09/15 09:43:07;;;;;;;7.93;3.92;;;20.10;65.80;;;;;;4989906;28;20481;-86
2023/09/15 09:45:32;;;;;;;5.03;3.33;;;20.10;65.50;;;;;;5012964;28;20099;-86
2023/09/15 09:48:01;;;;;;;6.85;3.85;;;20.10;65.50;;;;;;5008671;28;20080;-86
2023/09/15 09:50:27;;;;;;;3.60;2.67;;;20.10;65.00;;;;;;5007837;28;20030;-86
2023/09/15 09:52:53;;;;;;;5.72;3.05;;;20.20;65.20;;;;;;5018326;28;20092;-86
2023/09/15 09:55:20;;;;;;;6.20;3.70;;;20.30;65.10;;;;;;4989594;28;20497;-86
2023/09/15 09:57:46;;;;;;;6.00;3.50;;;20.30;64.70;;;;;;5010904;28;20444;-86
2023/09/15 10:00:18;;;;;;;6.10;3.60;;;20.20;64.20;;;;;;4987785;28;20018;-86
2023/09/15 10:02:44;;;;;;;;;;;20.20;64.20;;;;;;5020781;28;20038;-86
2023/09/15 10:05:10;;;;;;;5.25;3.38;;;20.20;64.80;;;;;;5020952;28;19913;-86
2023/09/15 10:07:36;;;;;;;6.60;4.10;;;20.30;65.10;;;;;;4988668;28;20393;-85
2023/09/15 10:10:06;;;;;;;7.90;4.65;;;20.30;63.70;;;;;;4992663;28;20026;-85
2023/09/15 10:12:36;;;;;;;6.53;3.83;;;20.30;63.40;;;;;;4994944;28;20227;-85
2023/09/15 10:15:04;;;;;;;6.50;4.15;;;20.30;63.80;;;;;;4998099;28;20057;-85
2023/09/15 10:17:31;;;;;;;7.05;4.05;;;20.40;63.70;;;;;;5003614;28;20031;-85
2023/09/15 10:19:57;;;;;;;6.55;3.53;;;20.50;63.90;;;;;;5013548;28;20023;-86
2023/09/15 10:22:24;;;;;;;7.50;3.40;;;20.50;63.80;;;;;;4991589;28;20121;-86
2023/09/15 10:24:56;;;;;;;6.93;3.90;;;20.70;63.80;;;;;;4990295;28;20377;-86
2023/09/15 10:27:22;;;;;;;7.28;4.60;;;20.80;63.40;;;;;;5010185;28;20023;-86
2023/09/15 10:29:47;;;;;;;7.75;3.60;;;20.80;63.20;;;;;;4994002;28;20030;-85
2023/09/15 10:32:19;;;;;;;6.03;3.60;;;20.80;63.40;;;;;;5010485;28;20044;-86
2023/09/15 10:34:47;;;;;;;6.65;3.88;;;20.80;63.10;;;;;;5022760;28;20171;-86
2023/09/15 10:37:13;;;;;;;8.10;4.63;;;20.90;63.00;;;;;;4997684;28;20469;-85
2023/09/15 10:39:41;;;;;;;5.82;3.55;;;20.90;62.10;;;;;;5004912;28;20528;-86
2023/09/15 10:42:08;;;;;;;6.50;4.18;;;21.00;62.50;;;;;;4996510;28;20116;-85
2023/09/15 10:44:34;;;;;;;5.30;3.30;;;21.00;62.30;;;;;;5027948;28;20141;-86
2023/09/15 10:47:00;;;;;;;9.45;4.30;;;21.00;62.30;;;;;;4994511;28;20117;-85
2023/09/15 10:49:26;;;;;;;4.80;3.38;;;21.10;62.70;;;;;;5013054;28;20044;-86
2023/09/15 10:52:01;;;;;;;8.27;3.75;;;21.20;62.50;;;;;;4994605;28;20041;-85
2023/09/15 10:54:32;;;;;;;6.70;4.10;;;21.20;62.40;;;;;;4998102;28;20029;-86
2023/09/15 10:56:59;;;;;;;6.82;4.25;;;21.20;62.10;;;;;;5002078;28;20065;-86
2023/09/15 10:59:26;;;;;;;6.40;4.18;;;21.20;62.20;;;;;;5013489;28;20101;-86
2023/09/15 11:01:52;;;;;;;7.43;3.92;;;21.20;62.00;;;;;;5007773;28;20038;-85
2023/09/15 11:04:20;;;;;;;5.70;3.80;;;21.40;62.10;;;;;;4998812;28;20096;-86
2023/09/15 11:06:51;;;;;;;6.38;4.30;;;21.50;61.50;;;;;;5002481;28;20535;-85
2023/09/15 11:09:18;;;;;;;7.07;4.23;;;21.60;61.10;;;;;;4993218;28;20030;-85
2023/09/15 11:11:50;;;;;;;6.95;5.00;;;21.50;60.50;;;;;;5008114;28;20314;-85
2023/09/15 11:14:16;;;;;;;;;;;21.50;60.50;;;;;;5008633;28;20037;-85
2023/09/15 11:16:44;;;;;;;7.07;4.10;;;21.50;60.80;;;;;;4996731;28;19918;-86
2023/09/15 11:19:11;;;;;;;5.53;3.42;;;21.50;60.80;;;;;;5003354;28;20014;-85
2023/09/15 11:21:39;;;;;;;5.57;3.63;;;21.60;61.00;;;;;;5022608;28;20034;-86
2023/09/15 11:24:06;;;;;;;6.32;4.10;;;21.70;60.90;;;;;;4995312;28;20024;-85
2023/09/15 11:26:31;;;;;;;7.95;4.47;;;21.80;60.80;;;;;;5004405;28;20030;-86
2023/09/15 11:28:59;;;;;;;5.70;4.00;;;21.80;60.50;;;;;;5010609;28;20037;-85
2023/09/15 11:31:25;;;;;;;5.38;3.72;;;21.80;60.30;;;;;;5003949;28;20038;-85
2023/09/15 11:33:54;;;;;;;6.45;4.10;;;21.90;60.10;;;;;;4992705;28;20529;-86
2023/09/15 11:36:21;;;;;;;8.27;4.10;;;22.00;60.20;;;;;;5000833;28;20116;-86
2023/09/15 11:38:47;;;;;;;5.80;4.30;;;22.10;60.10;;;;;;4992552;28;20571;-86
2023/09/15 11:41:12;;;;;;;6.35;3.10;;;22.00;59.30;;;;;;5004223;28;20034;-86
2023/09/15 11:43:39;;;;;;;5.47;3.03;;;22.20;59.70;;;;;;4992443;28;20034;-86
2023/09/15 11:46:07;;;;;;;4.68;3.10;;;22.30;59.20;;;;;;4989317;28;20322;-86
2023/09/15 11:48:38;;;;;;;5.60;3.38;;;22.60;59.10;;;;;;4987063;28;20558;-85
2023/09/15 11:51:06;;;;;;;6.25;3.97;;;22.80;58.80;;;;;;5003060;28;20741;-86
2023/09/15 11:53:36;;;;;;;6.15;3.45;;;22.60;57.40;;;;;;4991169;28;20160;-86
2023/09/15 11:56:03;;;;;;;4.60;2.80;;;22.70;58.30;;;;;;4991166;28;20115;-86
2023/09/15 11:58:29;;;;;;;4.43;3.03;;;22.80;58.30;;;;;;4992487;28;20007;-86
2023/09/15 12:00:55;;;;;;;6.10;3.10;;;22.90;57.80;;;;;;4988949;28;20023;-85
2023/09/15 12:03:21;;;;;;;5.13;3.22;;;23.10;57.50;;;;;;4990429;28;20038;-86
2023/09/15 12:05:47;;;;;;;5.05;2.70;;;23.10;57.20;;;;;;4990518;28;20111;-85
2023/09/15 12:08:12;;;;;;;5.55;3.78;;;23.20;57.40;;;;;;4996530;28;20026;-85
2023/09/15 12:10:38;;;;;;;5.35;3.00;;;23.20;56.80;;;;;;5011578;28;20023;-86
2023/09/15 12:13:04;;;;;;;5.18;3.35;;;23.30;56.80;;;;;;4988138;28;20718;-86
2023/09/15 12:15:30;;;;;;;4.88;2.80;;;23.30;56.40;;;;;;4989718;28;20517;-85
2023/09/15 12:17:56;;;;;;;4.22;2.55;;;23.30;56.60;;;;;;5004575;28;20121;-86
2023/09/15 12:20:25;;;;;;;4.18;2.40;;;23.40;56.80;;;;;;4987456;28;20393;-86
2023/09/15 12:22:53;;;;;;;4.88;3.40;;;23.50;56.80;;;;;;4990500;28;20392;-87
2023/09/15 12:25:20;;;;;;;3.75;2.60;;;23.40;56.20;;;;;;4987867;28;20053;-87
2023/09/15 12:27:46;;;;;;;5.05;2.72;;;23.60;56.30;;;;;;4994260;28;20515;-85
2023/09/15 12:30:14;;;;;;;4.75;3.08;;;23.60;56.00;;;;;;4986456;28;20548;-86
2023/09/15 12:32:39;;;;;;;4.85;2.97;;;23.60;56.10;;;;;;4985276;28;20050;-85
2023/09/15 12:35:11;;;;;;;6.05;3.47;;;23.70;56.20;;;;;;4987928;28;20030;-86
2023/09/15 12:37:39;;;;;;;;;;;23.70;56.20;;;;;;5005360;28;20041;-86
2023/09/15 12:40:05;;;;;;;4.38;2.60;;;23.80;56.40;;;;;;4993172;28;20366;-86
2023/09/15 12:42:31;;;;;;;4.75;2.60;;;24.00;56.00;;;;;;4983264;28;20046;-86
2023/09/15 12:44:56;;;;;;;6.00;3.38;;;24.00;55.00;;;;;;4989237;28;20434;-86